Time;durP1;ratioP1;P1;durP2;ratioP2;P2;SDS_P1;SDS_P2;PMS_P1;PMS_P2;Temp;Humidity;BMP_temperature;BMP_pressure;BME280_temperature;BME280_humidity;BME280_pressure;Samples;Min_cycle;Max_cycle;Signal;HPM_P1;HPM_P2
2023/04/29 00:02:19;;;;;;;53.28;37.00;;;;;;;;;;4974265;28;20030;-73
2023/04/29 00:04:45;;;;;;;52.47;37.35;;;;;;;;;;4991803;28;20093;-74
2023/04/29 00:07:14;;;;;;;49.30;36.50;;;;;;;;;;4991565;28;20030;-74
2023/04/29 00:09:40;;;;;;;43.90;34.67;;;;;;;;;;4976355;28;20018;-73
2023/04/29 00:12:06;;;;;;;49.17;35.10;;;;;;;;;;4991775;28;20065;-73
2023/04/29 00:14:32;;;;;;;45.33;34.28;;;;;;;;;;4993901;28;20023;-74
2023/04/29 00:16:58;;;;;;;46.90;33.83;;;;;;;;;;4998814;28;20476;-73
2023/04/29 00:19:24;;;;;;;46.00;32.90;;;;;;;;;;5004882;23;20150;-77
2023/04/29 00:21:51;;;;;;;44.75;33.10;;;;;;;;;;4991190;28;20121;-76
2023/04/29 00:24:17;;;;;;;44.40;32.92;;;;;;;;;;4991766;28;20030;-76
2023/04/29 00:26:43;;;;;;;46.05;34.13;;;;;;;;;;4974451;28;20032;-77
2023/04/29 00:29:09;;;;;;;40.03;31.45;;;;;;;;;;4991347;28;20027;-78
2023/04/29 00:31:36;;;;;;;41.35;31.92;;;;;;;;;;4991618;28;20038;-78
2023/04/29 00:34:02;;;;;;;46.70;32.78;;;;;;;;;;4974124;28;20030;-79
2023/04/29 00:36:29;;;;;;;43.83;31.30;;;;;;;;;;4991574;28;20027;-78
2023/04/29 00:38:56;;;;;;;40.30;31.27;;;;;;;;;;4991481;28;20034;-77
2023/04/29 00:41:22;;;;;;;40.92;30.70;;;;;;;;;;4991844;28;20027;-79
2023/04/29 00:43:48;;;;;;;42.40;31.95;;;;;;;;;;4991701;28;20027;-78
2023/04/29 00:46:15;;;;;;;35.80;29.42;;;;;;;;;;4991893;28;20033;-78
2023/04/29 00:48:41;;;;;;;43.15;30.90;;;;;;;;;;4991448;28;20026;-78
2023/04/29 00:51:07;;;;;;;40.63;32.00;;;;;;;;;;4977796;28;20492;-77
2023/04/29 00:53:33;;;;;;;41.38;33.75;;;;;;;;;;4995052;28;20071;-77
2023/04/29 00:56:01;;;;;;;41.08;30.30;;;;;;;;;;4995145;28;20027;-77
2023/04/29 00:58:32;;;;;;;38.38;30.95;;;;;;;;;;4977291;28;20027;-77
2023/04/29 01:00:59;;;;;;;42.70;31.25;;;;;;;;;;4995196;28;20025;-77
2023/04/29 01:03:25;;;;;;;40.25;32.03;;;;;;;;;;4994701;28;20489;-78
2023/04/29 01:05:58;;;;;;;41.60;31.50;;;;;;;;;;4995007;28;20022;-79
2023/04/29 01:08:43;;;;;;;45.88;33.03;;;;;;;;;;4996042;28;20042;-79
2023/04/29 01:11:10;;;;;;;39.88;30.73;;;;;;;;;;4995292;28;20030;-79
2023/04/29 01:13:48;;;;;;;46.40;33.47;;;;;;;;;;4994822;28;20476;-77
2023/04/29 01:16:27;;;;;;;47.85;34.67;;;;;;;;;;4995029;28;20030;-78
2023/04/29 01:18:55;;;;;;;46.53;34.28;;;;;;;;;;4994311;28;20062;-78
2023/04/29 01:21:21;;;;;;;44.40;33.08;;;;;;;;;;4994828;28;20027;-78
2023/04/29 01:23:54;;;;;;;50.40;35.30;;;;;;;;;;4976978;28;20029;-77
2023/04/29 01:26:20;;;;;;;53.88;36.40;;;;;;;;;;4994615;28;20034;-77
2023/04/29 01:29:10;;;;;;;51.10;36.50;;;;;;;;;;4994300;28;20540;-77
2023/04/29 01:31:40;;;;;;;54.88;37.95;;;;;;;;;;4994498;28;20027;-77
2023/04/29 01:34:22;;;;;;;52.70;36.63;;;;;;;;;;4976777;28;20029;-77
2023/04/29 01:37:06;;;;;;;51.22;36.83;;;;;;;;;;4976752;28;20018;-77
2023/04/29 01:39:35;;;;;;;54.80;38.22;;;;;;;;;;4993924;28;20053;-78
2023/04/29 01:42:01;;;;;;;56.13;39.25;;;;;;;;;;4994253;28;20034;-77
2023/04/29 01:44:29;;;;;;;52.55;37.75;;;;;;;;;;4994286;28;20484;-78
2023/04/29 01:46:55;;;;;;;61.03;39.35;;;;;;;;;;4976703;28;20032;-77
2023/04/29 01:49:25;;;;;;;60.67;41.30;;;;;;;;;;4993664;28;20031;-78
2023/04/29 01:51:51;;;;;;;60.47;40.53;;;;;;;;;;4994509;28;20023;-77
2023/04/29 01:54:17;;;;;;;63.80;43.50;;;;;;;;;;4994277;28;20018;-77
2023/04/29 01:56:43;;;;;;;69.38;42.92;;;;;;;;;;4994039;28;20385;-77
2023/04/29 01:59:09;;;;;;;64.05;42.92;;;;;;;;;;4994037;28;20022;-78
2023/04/29 02:01:36;;;;;;;73.15;45.38;;;;;;;;;;4993164;28;20018;-78
2023/04/29 02:04:02;;;;;;;63.70;42.72;;;;;;;;;;4993792;28;20124;-77
2023/04/29 02:06:30;;;;;;;72.55;45.15;;;;;;;;;;4993668;28;20018;-77
2023/04/29 02:08:57;;;;;;;68.65;45.08;;;;;;;;;;4975989;28;20030;-77
2023/04/29 02:11:23;;;;;;;71.20;44.22;;;;;;;;;;4993620;28;20129;-77
2023/04/29 02:13:49;;;;;;;66.28;40.97;;;;;;;;;;4993617;28;20026;-77
2023/04/29 02:16:15;;;;;;;59.50;38.58;;;;;;;;;;4993635;28;20030;-77
2023/04/29 02:18:41;;;;;;;45.90;29.48;;;;;;;;;;4993135;28;20496;-77
2023/04/29 02:21:07;;;;;;;37.60;24.95;;;;;;;;;;4993520;28;20507;-79
2023/04/29 02:23:36;;;;;;;32.28;21.30;;;;;;;;;;4993613;28;20025;-77
2023/04/29 02:26:05;;;;;;;23.23;16.40;;;;;;;;;;4993486;28;20423;-76
2023/04/29 02:28:31;;;;;;;20.92;15.20;;;;;;;;;;4993363;28;20029;-77
2023/04/29 02:30:57;;;;;;;16.75;12.88;;;;;;;;;;4993465;28;20030;-77
2023/04/29 02:33:23;;;;;;;17.77;12.88;;;;;;;;;;4993427;28;20022;-77
2023/04/29 02:35:49;;;;;;;20.15;12.85;;;;;;;;;;4993663;28;20033;-77
2023/04/29 02:38:15;;;;;;;15.82;11.68;;;;;;;;;;4975408;28;20026;-77
2023/04/29 02:40:42;;;;;;;14.82;10.80;;;;;;;;;;4993292;28;20046;-78
2023/04/29 02:43:08;;;;;;;14.57;9.93;;;;;;;;;;4993276;28;20018;-78
2023/04/29 02:45:34;;;;;;;12.25;9.40;;;;;;;;;;4993078;28;20030;-78
2023/04/29 02:48:00;;;;;;;11.15;8.70;;;;;;;;;;4992650;28;20486;-78
2023/04/29 02:50:27;;;;;;;12.65;10.57;;;;;;;;;;4992892;28;20034;-77
2023/04/29 02:52:53;;;;;;;12.65;10.20;;;;;;;;;;4992824;28;20077;-77
2023/04/29 02:55:19;;;;;;;13.18;10.60;;;;;;;;;;4992928;28;20038;-77
2023/04/29 02:57:46;;;;;;;14.15;9.27;;;;;;;;;;4992369;28;20455;-78
2023/04/29 03:00:12;;;;;;;10.73;7.82;;;;;;;;;;4992684;28;20084;-78
2023/04/29 03:02:38;;;;;;;10.98;7.90;;;;;;;;;;4992888;28;20031;-77
2023/04/29 03:05:04;;;;;;;10.68;7.82;;;;;;;;;;4992954;28;20030;-77
2023/04/29 03:07:31;;;;;;;8.57;7.18;;;;;;;;;;4996063;28;20058;-77
2023/04/29 03:09:57;;;;;;;12.48;8.65;;;;;;;;;;4995821;28;20026;-76
2023/04/29 03:12:23;;;;;;;8.95;7.50;;;;;;;;;;4996411;28;20037;-76
2023/04/29 03:14:50;;;;;;;10.07;8.38;;;;;;;;;;4986983;28;20022;-78
2023/04/29 03:17:16;;;;;;;12.30;8.48;;;;;;;;;;4996679;28;20030;-78
2023/04/29 03:19:42;;;;;;;10.02;7.90;;;;;;;;;;5008142;28;20026;-79
2023/04/29 03:22:10;;;;;;;7.55;6.68;;;;;;;;;;4994915;28;20456;-79
2023/04/29 03:24:36;;;;;;;6.85;6.15;;;;;;;;;;4976075;28;20030;-78
2023/04/29 03:27:03;;;;;;;8.35;6.45;;;;;;;;;;4993564;28;20109;-80
2023/04/29 03:29:29;;;;;;;8.57;7.35;;;;;;;;;;4992809;28;20136;-78
2023/04/29 03:31:56;;;;;;;9.52;6.60;;;;;;;;;;4994181;28;20415;-78
2023/04/29 03:34:22;;;;;;;8.35;6.07;;;;;;;;;;4993276;28;20100;-77
2023/04/29 03:36:48;;;;;;;7.82;5.63;;;;;;;;;;4992417;28;20030;-77
2023/04/29 03:39:14;;;;;;;7.70;6.18;;;;;;;;;;4992506;28;20023;-78
2023/04/29 03:41:40;;;;;;;6.80;5.47;;;;;;;;;;4992350;28;20022;-77
2023/04/29 03:44:06;;;;;;;9.25;7.30;;;;;;;;;;4974882;28;20058;-77
2023/04/29 03:46:32;;;;;;;5.10;4.43;;;;;;;;;;4974910;28;20093;-77
2023/04/29 03:48:58;;;;;;;8.30;6.00;;;;;;;;;;4992050;28;20030;-77
2023/04/29 03:51:25;;;;;;;8.02;4.80;;;;;;;;;;4992647;28;20081;-77
2023/04/29 03:53:52;;;;;;;5.07;4.30;;;;;;;;;;4992061;28;20469;-77
2023/04/29 03:56:18;;;;;;;5.57;4.35;;;;;;;;;;4992417;28;20050;-76
2023/04/29 03:58:45;;;;;;;7.30;4.80;;;;;;;;;;4992714;28;20527;-75
2023/04/29 04:01:11;;;;;;;7.50;4.82;;;;;;;;;;4992525;28;20018;-76
2023/04/29 04:03:37;;;;;;;9.25;6.05;;;;;;;;;;4992253;28;20019;-76
2023/04/29 04:06:03;;;;;;;6.82;5.47;;;;;;;;;;4990770;28;20401;-76
2023/04/29 04:08:29;;;;;;;7.35;5.28;;;;;;;;;;4991820;28;20033;-76
2023/04/29 04:11:01;;;;;;;8.98;6.53;;;;;;;;;;4991824;28;20026;-77
2023/04/29 04:13:27;;;;;;;8.13;6.47;;;;;;;;;;4991899;28;20022;-77
2023/04/29 04:15:53;;;;;;;7.45;6.47;;;;;;;;;;4969526;28;20030;-76
2023/04/29 04:18:19;;;;;;;7.50;6.80;;;;;;;;;;4988530;28;20029;-77
2023/04/29 04:20:46;;;;;;;7.78;6.65;;;;;;;;;;4968047;28;20038;-77
2023/04/29 04:23:12;;;;;;;10.18;8.00;;;;;;;;;;4987494;28;20026;-77
2023/04/29 04:25:38;;;;;;;10.75;9.10;;;;;;;;;;4991401;28;20034;-77
2023/04/29 04:28:04;;;;;;;14.13;10.38;;;;;;;;;;4994641;28;20061;-78
2023/04/29 04:30:30;;;;;;;14.77;11.80;;;;;;;;;;4987008;28;20034;-78
2023/04/29 04:32:56;;;;;;;18.40;12.02;;;;;;;;;;4995527;28;20022;-77
2023/04/29 04:35:22;;;;;;;14.60;10.88;;;;;;;;;;4978102;28;20022;-77
2023/04/29 04:37:49;;;;;;;13.57;11.18;;;;;;;;;;4995642;28;20077;-77
2023/04/29 04:40:15;;;;;;;14.65;11.05;;;;;;;;;;4977864;28;20081;-77
2023/04/29 04:42:41;;;;;;;15.65;11.95;;;;;;;;;;4993061;28;20035;-77
2023/04/29 04:45:08;;;;;;;11.13;9.90;;;;;;;;;;4977895;28;20029;-78
2023/04/29 04:47:35;;;;;;;14.30;11.18;;;;;;;;;;4995150;28;20037;-78
2023/04/29 04:50:03;;;;;;;14.18;12.18;;;;;;;;;;4995346;28;20405;-79
2023/04/29 04:52:29;;;;;;;15.32;12.88;;;;;;;;;;4980651;28;20448;-79
2023/04/29 04:54:55;;;;;;;17.33;12.02;;;;;;;;;;4998402;28;20033;-79
2023/04/29 04:57:21;;;;;;;19.67;14.30;;;;;;;;;;4997479;28;20118;-79
2023/04/29 04:59:47;;;;;;;18.55;14.60;;;;;;;;;;4993150;28;20469;-80
2023/04/29 05:02:13;;;;;;;20.25;14.80;;;;;;;;;;4999144;28;20101;-77
2023/04/29 05:04:39;;;;;;;19.45;14.30;;;;;;;;;;4999202;28;20120;-78
2023/04/29 05:07:05;;;;;;;21.52;16.50;;;;;;;;;;4988022;28;20038;-78
2023/04/29 05:09:31;;;;;;;19.15;14.93;;;;;;;;;;5010554;28;20093;-79
2023/04/29 05:11:58;;;;;;;23.35;16.50;;;;;;;;;;4993781;28;20046;-77
2023/04/29 05:14:24;;;;;;;23.13;16.83;;;;;;;;;;4991817;28;20027;-76
2023/04/29 05:16:51;;;;;;;24.85;18.35;;;;;;;;;;5006711;28;20053;-78
2023/04/29 05:19:17;;;;;;;34.97;22.23;;;;;;;;;;5011341;28;20034;-77
2023/04/29 05:21:50;;;;;;;30.92;21.98;;;;;;;;;;4987612;28;20081;-77
2023/04/29 05:24:16;;;;;;;30.48;22.23;;;;;;;;;;4999565;28;20114;-77
2023/04/29 05:26:43;;;;;;;32.80;23.33;;;;;;;;;;4995181;28;20046;-78
2023/04/29 05:29:09;;;;;;;30.40;21.48;;;;;;;;;;4994990;28;20515;-77
2023/04/29 05:31:35;;;;;;;29.23;22.77;;;;;;;;;;4978598;28;20069;-79
2023/04/29 05:34:01;;;;;;;30.20;23.30;;;;;;;;;;4978370;28;20029;-77
2023/04/29 05:36:28;;;;;;;27.67;21.95;;;;;;;;;;4993804;28;20026;-77
2023/04/29 05:38:57;;;;;;;31.38;22.75;;;;;;;;;;4997233;28;20022;-79
2023/04/29 05:41:23;;;;;;;24.58;20.05;;;;;;;;;;4995674;28;20027;-78
2023/04/29 05:43:50;;;;;;;21.58;17.67;;;;;;;;;;4995583;28;20155;-79
2023/04/29 05:46:16;;;;;;;21.23;17.48;;;;;;;;;;4995281;28;20022;-78
2023/04/29 05:48:42;;;;;;;18.60;16.27;;;;;;;;;;4977351;28;20093;-79
2023/04/29 05:51:08;;;;;;;18.00;15.88;;;;;;;;;;4995051;28;20069;-79
2023/04/29 05:53:37;;;;;;;18.38;15.65;;;;;;;;;;4995801;28;20018;-80
2023/04/29 05:56:06;;;;;;;16.23;14.50;;;;;;;;;;4997910;28;20036;-78
2023/04/29 05:58:33;;;;;;;17.92;15.88;;;;;;;;;;4995393;28;20022;-78
2023/04/29 06:00:59;;;;;;;18.33;15.90;;;;;;;;;;4996931;28;20030;-77
2023/04/29 06:03:25;;;;;;;18.88;16.08;;;;;;;;;;4999135;28;20050;-78
2023/04/29 06:05:51;;;;;;;17.23;15.18;;;;;;;;;;4998523;28;20025;-78
2023/04/29 06:08:17;;;;;;;15.68;14.00;;;;;;;;;;4993800;28;20489;-77
2023/04/29 06:10:43;;;;;;;16.98;14.65;;;;;;;;;;4994039;28;20050;-79
2023/04/29 06:13:09;;;;;;;15.65;14.02;;;;;;;;;;4976567;28;20496;-78
2023/04/29 06:15:35;;;;;;;15.57;13.88;;;;;;;;;;4993451;28;20023;-79
2023/04/29 06:18:01;;;;;;;14.05;12.52;;;;;;;;;;4993026;28;20029;-78
2023/04/29 06:20:27;;;;;;;15.27;13.68;;;;;;;;;;4976800;28;20034;-77
2023/04/29 06:22:53;;;;;;;14.80;12.50;;;;;;;;;;4993305;28;20022;-77
2023/04/29 06:25:19;;;;;;;15.20;13.60;;;;;;;;;;4993087;28;20026;-78
2023/04/29 06:27:46;;;;;;;16.17;13.93;;;;;;;;;;4992565;28;20023;-77
2023/04/29 06:30:12;;;;;;;14.20;12.70;;;;;;;;;;4975720;28;20081;-77
2023/04/29 06:32:38;;;;;;;15.82;12.95;;;;;;;;;;4992959;28;20030;-78
2023/04/29 06:35:05;;;;;;;14.23;12.38;;;;;;;;;;4993404;28;20058;-78
2023/04/29 06:37:31;;;;;;;15.52;13.50;;;;;;;;;;4992869;28;20061;-77
2023/04/29 06:39:57;;;;;;;14.43;12.93;;;;;;;;;;4991542;28;20125;-77
2023/04/29 06:42:23;;;;;;;15.50;11.90;;;;;;;;;;4990138;28;20113;-76
2023/04/29 06:44:49;;;;;;;13.98;12.32;;;;;;;;;;4978848;28;20023;-76
2023/04/29 06:47:15;;;;;;;12.55;11.25;;;;;;;;;;4972781;28;20038;-77
2023/04/29 06:49:42;;;;;;;14.13;11.45;;;;;;;;;;4990969;28;20018;-77
2023/04/29 06:52:08;;;;;;;13.30;11.90;;;;;;;;;;4989549;28;20046;-78
2023/04/29 06:54:34;;;;;;;16.20;14.02;;;;;;;;;;4992180;28;20034;-78
2023/04/29 06:57:01;;;;;;;15.80;13.88;;;;;;;;;;4992694;28;20089;-78
2023/04/29 06:59:27;;;;;;;14.07;12.57;;;;;;;;;;4992917;28;20388;-78
2023/04/29 07:01:53;;;;;;;15.18;13.40;;;;;;;;;;4992521;28;20033;-78
2023/04/29 07:04:19;;;;;;;15.32;12.73;;;;;;;;;;4992794;28;20022;-79
2023/04/29 07:06:45;;;;;;;15.80;13.23;;;;;;;;;;4992690;28;20034;-79
2023/04/29 07:09:15;;;;;;;15.80;12.48;;;;;;;;;;4992582;28;20448;-79
2023/04/29 07:11:41;;;;;;;15.85;14.10;;;;;;;;;;4975261;28;20037;-78
2023/04/29 07:14:07;;;;;;;17.00;15.20;;;;;;;;;;4992534;28;20019;-78
2023/04/29 07:16:33;;;;;;;16.83;13.38;;;;;;;;;;4992446;28;20026;-78
2023/04/29 07:19:00;;;;;;;17.60;14.52;;;;;;;;;;4974742;28;20393;-78
2023/04/29 07:21:26;;;;;;;15.73;14.00;;;;;;;;;;4992699;28;20046;-78
2023/04/29 07:23:54;;;;;;;17.15;14.75;;;;;;;;;;4998524;28;20052;-79
2023/04/29 07:26:20;;;;;;;20.33;17.00;;;;;;;;;;5008610;28;20050;-78
2023/04/29 07:28:48;;;;;;;18.05;14.77;;;;;;;;;;5007655;28;20251;-78
2023/04/29 07:31:14;;;;;;;17.60;15.70;;;;;;;;;;5007627;28;20022;-78
2023/04/29 07:33:40;;;;;;;18.77;15.63;;;;;;;;;;5009421;28;20019;-79
2023/04/29 07:36:06;;;;;;;16.05;14.30;;;;;;;;;;5007876;28;20042;-78
2023/04/29 07:38:33;;;;;;;16.63;14.88;;;;;;;;;;5002440;28;20023;-78
2023/04/29 07:40:59;;;;;;;16.63;14.90;;;;;;;;;;4995363;28;20022;-82
2023/04/29 07:43:25;;;;;;;14.18;12.68;;;;;;;;;;4986358;28;20030;-77
2023/04/29 07:45:51;;;;;;;14.70;12.77;;;;;;;;;;4993689;28;20529;-78
2023/04/29 07:48:17;;;;;;;13.65;12.25;;;;;;;;;;4993073;28;20089;-78
2023/04/29 07:50:43;;;;;;;10.60;9.52;;;;;;;;;;4974836;28;20480;-77
2023/04/29 07:53:09;;;;;;;11.05;9.95;;;;;;;;;;4992210;28;20057;-77
2023/04/29 07:55:36;;;;;;;9.35;8.45;;;;;;;;;;4974517;28;20115;-77
2023/04/29 07:58:03;;;;;;;8.60;7.50;;;;;;;;;;4973795;28;20027;-75
2023/04/29 08:00:29;;;;;;;10.77;7.68;;;;;;;;;;4991217;28;20097;-77
2023/04/29 08:02:55;;;;;;;7.90;6.72;;;;;;;;;;4992224;28;20034;-76
2023/04/29 08:05:22;;;;;;;7.25;6.55;;;;;;;;;;4991943;28;20046;-77
2023/04/29 08:07:49;;;;;;;9.45;6.82;;;;;;;;;;4991485;28;20449;-76
2023/04/29 08:10:15;;;;;;;7.75;6.88;;;;;;;;;;4992514;28;20030;-77
2023/04/29 08:12:41;;;;;;;7.82;6.72;;;;;;;;;;4990079;28;20018;-77
2023/04/29 08:15:08;;;;;;;8.13;6.93;;;;;;;;;;4990856;28;20031;-78
2023/04/29 08:17:35;;;;;;;7.43;6.53;;;;;;;;;;4972802;28;20555;-77
2023/04/29 08:20:01;;;;;;;7.18;6.40;;;;;;;;;;4990567;28;20030;-78
2023/04/29 08:22:27;;;;;;;8.50;5.90;;;;;;;;;;4991325;28;20037;-77
2023/04/29 08:24:53;;;;;;;7.95;6.63;;;;;;;;;;4990740;28;20038;-78
2023/04/29 08:27:20;;;;;;;7.60;6.80;;;;;;;;;;4987729;28;20029;-76
2023/04/29 08:29:46;;;;;;;8.88;7.97;;;;;;;;;;4988222;28;20228;-77
2023/04/29 08:32:13;;;;;;;10.40;8.40;;;;;;;;;;4990535;28;20641;-78
2023/04/29 08:34:40;;;;;;;9.20;8.27;;;;;;;;;;4990403;28;20467;-79
2023/04/29 08:37:06;;;;;;;10.10;9.07;;;;;;;;;;4990339;28;20024;-76
2023/04/29 08:39:32;;;;;;;10.43;9.32;;;;;;;;;;4994442;28;20018;-75
2023/04/29 08:41:59;;;;;;;12.23;10.75;;;;;;;;;;4991439;28;20030;-77
2023/04/29 08:44:26;;;;;;;14.20;11.63;;;;;;;;;;4982074;28;20030;-77
2023/04/29 08:46:52;;;;;;;13.85;12.02;;;;;;;;;;4989911;28;20026;-76
2023/04/29 08:49:18;;;;;;;12.25;10.95;;;;;;;;;;4989528;28;20042;-77
2023/04/29 08:51:44;;;;;;;13.00;11.55;;;;;;;;;;4989593;28;20034;-77
2023/04/29 08:54:11;;;;;;;13.00;11.38;;;;;;;;;;4989858;28;20022;-77
2023/04/29 08:56:37;;;;;;;12.70;11.40;;;;;;;;;;4989511;28;20479;-77
2023/04/29 08:59:05;;;;;;;12.95;11.65;;;;;;;;;;4981316;28;20026;-76
2023/04/29 09:01:32;;;;;;;13.35;11.40;;;;;;;;;;4999651;28;20050;-76
2023/04/29 09:04:16;;;;;;;13.15;11.75;;;;;;;;;;5000194;28;20030;-78
2023/04/29 09:06:42;;;;;;;15.48;13.57;;;;;;;;;;4984265;28;20026;-77
2023/04/29 09:09:09;;;;;;;13.93;12.35;;;;;;;;;;4998148;28;20030;-77
2023/04/29 09:11:35;;;;;;;15.43;12.32;;;;;;;;;;4985008;28;20018;-77
2023/04/29 09:14:03;;;;;;;14.63;12.20;;;;;;;;;;4999331;28;20022;-76
2023/04/29 09:16:29;;;;;;;13.85;12.35;;;;;;;;;;5001659;28;20527;-77
2023/04/29 09:18:55;;;;;;;12.90;11.55;;;;;;;;;;4994653;28;20035;-77
2023/04/29 09:21:23;;;;;;;13.90;12.38;;;;;;;;;;4994573;28;20026;-77
2023/04/29 09:24:07;;;;;;;14.23;12.05;;;;;;;;;;5000079;28;20025;-77
2023/04/29 09:26:41;;;;;;;15.82;10.90;;;;;;;;;;4995746;28;20539;-76
2023/04/29 09:29:12;;;;;;;12.18;10.43;;;;;;;;;;5003554;28;20030;-75
2023/04/29 09:31:39;;;;;;;11.82;9.95;;;;;;;;;;4996913;28;20022;-76
2023/04/29 09:34:05;;;;;;;11.80;10.25;;;;;;;;;;5001216;28;20062;-76
2023/04/29 09:36:37;;;;;;;11.02;9.88;;;;;;;;;;4996368;28;20154;-78
2023/04/29 09:39:11;;;;;;;11.15;9.40;;;;;;;;;;4994706;28;20041;-76
2023/04/29 09:41:41;;;;;;;9.75;8.40;;;;;;;;;;4987603;28;20046;-77
2023/04/29 09:44:07;;;;;;;11.35;8.93;;;;;;;;;;5012171;28;20038;-78
2023/04/29 09:46:35;;;;;;;9.38;8.38;;;;;;;;;;4995849;28;20041;-78
2023/04/29 09:49:01;;;;;;;10.30;8.18;;;;;;;;;;4987976;28;20614;-76
2023/04/29 09:51:28;;;;;;;9.65;8.27;;;;;;;;;;5003517;28;20026;-77
2023/04/29 09:53:54;;;;;;;12.35;9.68;;;;;;;;;;4978628;28;20026;-76
2023/04/29 09:56:21;;;;;;;10.75;9.00;;;;;;;;;;4976581;28;20050;-77
2023/04/29 09:58:47;;;;;;;15.30;8.80;;;;;;;;;;4994084;28;20035;-78
2023/04/29 10:01:16;;;;;;;10.82;8.82;;;;;;;;;;4994337;28;20025;-78
2023/04/29 10:03:43;;;;;;;10.82;9.00;;;;;;;;;;4995170;28;20085;-76
2023/04/29 10:06:09;;;;;;;11.00;8.43;;;;;;;;;;4995280;28;20085;-78
2023/04/29 10:08:35;;;;;;;9.43;8.35;;;;;;;;;;4978797;28;20030;-77
2023/04/29 10:11:02;;;;;;;10.18;8.13;;;;;;;;;;4994442;28;20077;-77
2023/04/29 10:13:28;;;;;;;10.48;8.45;;;;;;;;;;4994047;28;20058;-77
2023/04/29 10:16:03;;;;;;;11.15;8.98;;;;;;;;;;4998160;28;20413;-77
2023/04/29 10:18:36;;;;;;;10.52;8.85;;;;;;;;;;4993644;28;20030;-77
2023/04/29 10:21:03;;;;;;;11.75;9.48;;;;;;;;;;4994223;28;20027;-78
2023/04/29 10:23:30;;;;;;;9.73;8.52;;;;;;;;;;4989023;28;20096;-77
2023/04/29 10:25:57;;;;;;;11.27;9.23;;;;;;;;;;4986110;28;20042;-79
2023/04/29 10:28:23;;;;;;;11.45;9.40;;;;;;;;;;4991967;28;20026;-77
2023/04/29 10:30:53;;;;;;;10.23;8.95;;;;;;;;;;4992352;28;20061;-78
2023/04/29 10:33:22;;;;;;;10.32;9.20;;;;;;;;;;4993636;28;20026;-77
2023/04/29 10:35:48;;;;;;;10.48;9.38;;;;;;;;;;4993945;28;20026;-77
2023/04/29 10:38:17;;;;;;;12.07;9.98;;;;;;;;;;4992198;28;20077;-77
2023/04/29 10:40:47;;;;;;;13.48;10.88;;;;;;;;;;4993728;28;20025;-77
2023/04/29 10:43:14;;;;;;;11.35;9.65;;;;;;;;;;4993871;28;20054;-77
2023/04/29 10:45:40;;;;;;;10.82;9.73;;;;;;;;;;4994132;28;20068;-76
2023/04/29 10:48:13;;;;;;;13.00;11.00;;;;;;;;;;4995342;28;20030;-79
2023/04/29 10:50:44;;;;;;;11.48;10.23;;;;;;;;;;4998682;28;20022;-78
2023/04/29 10:53:10;;;;;;;12.63;10.43;;;;;;;;;;4991532;28;20049;-78
2023/04/29 10:55:37;;;;;;;12.18;10.38;;;;;;;;;;4987504;28;20046;-78
2023/04/29 10:58:03;;;;;;;14.05;10.27;;;;;;;;;;4985223;28;20023;-79
2023/04/29 11:00:30;;;;;;;13.50;11.18;;;;;;;;;;4978063;28;20068;-78
2023/04/29 11:02:57;;;;;;;15.50;12.05;;;;;;;;;;4994958;28;20106;-78
2023/04/29 11:05:31;;;;;;;12.75;11.32;;;;;;;;;;4995626;28;20030;-78
2023/04/29 11:08:09;;;;;;;13.85;11.88;;;;;;;;;;4999514;28;20026;-78
2023/04/29 11:10:36;;;;;;;11.73;10.50;;;;;;;;;;4987759;28;20030;-77
2023/04/29 11:13:23;;;;;;;11.38;10.02;;;;;;;;;;4993227;28;20023;-77
2023/04/29 11:15:51;;;;;;;11.95;9.63;;;;;;;;;;4982325;28;20116;-78
2023/04/29 11:18:17;;;;;;;10.55;9.02;;;;;;;;;;4996031;28;20121;-77
2023/04/29 11:21:11;;;;;;;10.63;8.80;;;;;;;;;;4976840;28;20137;-78
2023/04/29 11:23:40;;;;;;;11.43;7.68;;;;;;;;;;4989788;28;20394;-78
2023/04/29 11:26:06;;;;;;;9.00;7.90;;;;;;;;;;4980337;28;20057;-77
2023/04/29 11:28:32;;;;;;;9.98;7.90;;;;;;;;;;4991452;28;20038;-76
2023/04/29 11:30:59;;;;;;;9.25;7.43;;;;;;;;;;4991479;28;20062;-80
2023/04/29 11:33:28;;;;;;;8.82;7.10;;;;;;;;;;4994559;28;20029;-78
2023/04/29 11:35:55;;;;;;;6.80;6.03;;;;;;;;;;4991488;28;20143;-78
2023/04/29 11:38:27;;;;;;;5.28;4.57;;;;;;;;;;4994224;28;20026;-79
2023/04/29 11:40:54;;;;;;;5.72;5.10;;;;;;;;;;4995341;28;20083;-78
2023/04/29 11:43:22;;;;;;;6.15;5.55;;;;;;;;;;4991883;28;20117;-79
2023/04/29 11:45:48;;;;;;;6.07;4.60;;;;;;;;;;4992558;28;20030;-79
2023/04/29 11:48:21;;;;;;;6.20;5.13;;;;;;;;;;4992598;28;20023;-78
2023/04/29 11:50:48;;;;;;;6.15;5.55;;;;;;;;;;4993537;28;20030;-78
2023/04/29 11:53:14;;;;;;;6.40;5.57;;;;;;;;;;4991686;28;20080;-80
2023/04/29 11:55:44;;;;;;;6.53;5.85;;;;;;;;;;4992145;28;20506;-79
2023/04/29 11:58:10;;;;;;;7.07;6.38;;;;;;;;;;4991693;28;20029;-76
2023/04/29 12:00:36;;;;;;;9.93;6.78;;;;;;;;;;4992640;28;20082;-78
2023/04/29 12:03:07;;;;;;;7.22;5.88;;;;;;;;;;4992060;28;20511;-78
2023/04/29 12:05:33;;;;;;;6.47;5.88;;;;;;;;;;4992017;28;20110;-77
2023/04/29 12:07:59;;;;;;;6.40;5.45;;;;;;;;;;4991804;28;20033;-78
2023/04/29 12:10:26;;;;;;;6.90;5.32;;;;;;;;;;4992062;28;20026;-78
2023/04/29 12:12:52;;;;;;;6.03;5.18;;;;;;;;;;4992138;28;20030;-78
2023/04/29 12:15:18;;;;;;;5.60;5.00;;;;;;;;;;4991996;28;20182;-78
2023/04/29 12:17:46;;;;;;;6.13;5.18;;;;;;;;;;4973857;28;20589;-79
2023/04/29 12:20:12;;;;;;;6.40;5.55;;;;;;;;;;5031557;23;20129;-77
2023/04/29 12:22:38;;;;;;;8.18;6.85;;;;;;;;;;5010692;28;20026;-77
2023/04/29 12:25:05;;;;;;;8.23;6.80;;;;;;;;;;4993522;28;20488;-77
2023/04/29 12:27:33;;;;;;;10.45;7.20;;;;;;;;;;5010793;28;20033;-75
2023/04/29 12:29:59;;;;;;;7.82;6.82;;;;;;;;;;5011189;28;20636;-76
2023/04/29 12:32:25;;;;;;;7.90;7.10;;;;;;;;;;5011260;28;20025;-76
2023/04/29 12:34:52;;;;;;;8.95;7.72;;;;;;;;;;5011287;28;20033;-76
2023/04/29 12:37:18;;;;;;;9.38;8.38;;;;;;;;;;5010843;28;20044;-76
2023/04/29 12:39:44;;;;;;;8.88;7.90;;;;;;;;;;4993521;28;20025;-76
2023/04/29 12:42:17;;;;;;;11.00;8.38;;;;;;;;;;4993595;28;20057;-76
2023/04/29 12:44:46;;;;;;;8.95;8.05;;;;;;;;;;5010590;28;20025;-76
2023/04/29 12:47:12;;;;;;;7.63;6.93;;;;;;;;;;4999411;28;20087;-75
2023/04/29 12:49:42;;;;;;;9.70;7.40;;;;;;;;;;5010610;28;20033;-75
2023/04/29 12:52:09;;;;;;;9.30;7.30;;;;;;;;;;5013906;28;20034;-73
2023/04/29 12:54:40;;;;;;;9.82;7.53;;;;;;;;;;5013803;28;20026;-73
2023/04/29 12:57:06;;;;;;;;;;;;;;;;;;5015657;28;20097;-73
2023/04/29 12:59:33;;;;;;;10.98;8.75;;;;;;;;;;5013711;28;20319;-72
2023/04/29 13:01:59;;;;;;;10.70;8.50;;;;;;;;;;4997032;28;20084;-73
2023/04/29 13:04:25;;;;;;;10.40;9.30;;;;;;;;;;5014287;28;20065;-72
2023/04/29 13:06:58;;;;;;;11.15;9.93;;;;;;;;;;5014378;28;20022;-73
2023/04/29 13:09:24;;;;;;;10.82;8.93;;;;;;;;;;5014303;28;20113;-74
2023/04/29 13:11:50;;;;;;;14.32;9.32;;;;;;;;;;5014429;28;20572;-74
2023/04/29 13:14:17;;;;;;;11.13;9.50;;;;;;;;;;5014168;28;20097;-74
2023/04/29 13:16:44;;;;;;;10.68;9.57;;;;;;;;;;5014460;28;20053;-74
2023/04/29 13:19:10;;;;;;;11.68;8.95;;;;;;;;;;5013880;28;20018;-76
2023/04/29 13:21:36;;;;;;;13.00;9.93;;;;;;;;;;5014712;28;20109;-75
2023/04/29 13:24:02;;;;;;;11.38;10.02;;;;;;;;;;4996557;28;20062;-74
2023/04/29 13:26:28;;;;;;;14.05;11.43;;;;;;;;;;5014246;28;20037;-74
2023/04/29 13:28:54;;;;;;;15.45;11.60;;;;;;;;;;5013983;28;20542;-74
2023/04/29 13:31:20;;;;;;;14.68;11.68;;;;;;;;;;5013741;28;20034;-74
2023/04/29 13:33:47;;;;;;;18.92;13.15;;;;;;;;;;5013838;28;20029;-74
2023/04/29 13:36:13;;;;;;;18.00;12.77;;;;;;;;;;5013642;28;20033;-74
2023/04/29 13:38:40;;;;;;;19.35;13.48;;;;;;;;;;5013955;28;20108;-75
2023/04/29 13:41:06;;;;;;;16.58;13.05;;;;;;;;;;5014379;28;20082;-73
2023/04/29 13:43:32;;;;;;;19.98;14.52;;;;;;;;;;5013822;28;20123;-72
2023/04/29 13:45:58;;;;;;;20.08;14.57;;;;;;;;;;5013751;28;20030;-72
2023/04/29 13:48:24;;;;;;;20.02;14.05;;;;;;;;;;5013262;28;20033;-73
2023/04/29 13:50:50;;;;;;;19.42;14.13;;;;;;;;;;5013377;28;20030;-73
2023/04/29 13:53:16;;;;;;;22.85;15.27;;;;;;;;;;4995705;28;20407;-72
2023/04/29 13:55:42;;;;;;;24.83;15.63;;;;;;;;;;5013185;28;20026;-72
2023/04/29 13:58:08;;;;;;;25.00;15.80;;;;;;;;;;5010772;28;20543;-73
2023/04/29 14:00:34;;;;;;;23.60;16.17;;;;;;;;;;4995864;28;20033;-73
2023/04/29 14:03:02;;;;;;;26.17;17.35;;;;;;;;;;4995933;28;20033;-73
2023/04/29 14:05:28;;;;;;;24.92;16.85;;;;;;;;;;5012621;28;20066;-73
2023/04/29 14:07:54;;;;;;;28.20;17.35;;;;;;;;;;4995477;28;20044;-73
2023/04/29 14:10:20;;;;;;;25.25;17.95;;;;;;;;;;4995719;28;20025;-72
2023/04/29 14:12:47;;;;;;;23.13;15.55;;;;;;;;;;5013440;28;20022;-73
2023/04/29 14:15:14;;;;;;;23.48;15.68;;;;;;;;;;5013507;28;20388;-73
2023/04/29 14:17:40;;;;;;;21.65;15.60;;;;;;;;;;5012922;28;20025;-72
2023/04/29 14:20:06;;;;;;;21.95;15.25;;;;;;;;;;4995767;28;20026;-73
2023/04/29 14:22:32;;;;;;;20.17;14.70;;;;;;;;;;4995560;28;20087;-73
2023/04/29 14:24:58;;;;;;;21.83;15.48;;;;;;;;;;5013642;28;20176;-73
2023/04/29 14:27:25;;;;;;;21.92;15.75;;;;;;;;;;5013061;28;20421;-72